sensor_id;sensor_type;location;lat;lon;timestamp;temperature;humidity
68924;DHT22;55961;52.156;20.942;2022-09-25T00:01:24;8.10;70.10
68924;DHT22;55961;52.156;20.942;2022-09-25T00:03:51;8.10;70.20
68924;DHT22;55961;52.156;20.942;2022-09-25T00:06:22;8.10;70.30
68924;DHT22;55961;52.156;20.942;2022-09-25T00:08:48;8.10;70.40
68924;DHT22;55961;52.156;20.942;2022-09-25T00:11:20;8.00;70.50
68924;DHT22;55961;52.156;20.942;2022-09-25T00:13:47;8.00;70.60
68924;DHT22;55961;52.156;20.942;2022-09-25T00:16:16;7.90;70.50
68924;DHT22;55961;52.156;20.942;2022-09-25T00:18:42;7.90;70.60
68924;DHT22;55961;52.156;20.942;2022-09-25T00:21:27;7.90;70.60
68924;DHT22;55961;52.156;20.942;2022-09-25T00:24:00;7.80;70.80
68924;DHT22;55961;52.156;20.942;2022-09-25T00:26:29;7.80;70.80
68924;DHT22;55961;52.156;20.942;2022-09-25T00:28:56;7.80;70.80
68924;DHT22;55961;52.156;20.942;2022-09-25T00:31:23;7.80;70.80
68924;DHT22;55961;52.156;20.942;2022-09-25T00:33:58;7.70;70.70
68924;DHT22;55961;52.156;20.942;2022-09-25T00:36:24;7.70;70.90
68924;DHT22;55961;52.156;20.942;2022-09-25T00:38:51;7.70;70.80
68924;DHT22;55961;52.156;20.942;2022-09-25T00:41:19;7.60;71.30
68924;DHT22;55961;52.156;20.942;2022-09-25T00:43:47;7.60;71.40
68924;DHT22;55961;52.156;20.942;2022-09-25T00:46:41;7.60;71.40
68924;DHT22;55961;52.156;20.942;2022-09-25T00:49:15;7.50;71.40
68924;DHT22;55961;52.156;20.942;2022-09-25T00:52:09;7.50;71.50
68924;DHT22;55961;52.156;20.942;2022-09-25T00:54:41;7.50;71.70
68924;DHT22;55961;52.156;20.942;2022-09-25T00:57:13;7.50;71.60
68924;DHT22;55961;52.156;20.942;2022-09-25T00:59:44;7.50;71.80
68924;DHT22;55961;52.156;20.942;2022-09-25T01:02:16;7.40;71.80
68924;DHT22;55961;52.156;20.942;2022-09-25T01:04:44;7.40;71.80
68924;DHT22;55961;52.156;20.942;2022-09-25T01:07:12;7.40;71.80
68924;DHT22;55961;52.156;20.942;2022-09-25T01:09:39;7.40;71.80
68924;DHT22;55961;52.156;20.942;2022-09-25T01:12:06;7.40;71.80
68924;DHT22;55961;52.156;20.942;2022-09-25T01:14:32;7.40;71.90
68924;DHT22;55961;52.156;20.942;2022-09-25T01:22:45;7.30;72.00
68924;DHT22;55961;52.156;20.942;2022-09-25T01:25:30;7.30;72.20
68924;DHT22;55961;52.156;20.942;2022-09-25T01:31:06;7.30;72.20
68924;DHT22;55961;52.156;20.942;2022-09-25T01:33:38;7.30;72.30
68924;DHT22;55961;52.156;20.942;2022-09-25T01:36:40;7.30;72.50
68924;DHT22;55961;52.156;20.942;2022-09-25T01:39:20;7.20;72.60
68924;DHT22;55961;52.156;20.942;2022-09-25T01:41:57;7.20;72.60
68924;DHT22;55961;52.156;20.942;2022-09-25T01:44:32;7.20;72.70
68924;DHT22;55961;52.156;20.942;2022-09-25T01:47:14;7.20;72.60
68924;DHT22;55961;52.156;20.942;2022-09-25T01:49:58;7.20;72.60
68924;DHT22;55961;52.156;20.942;2022-09-25T01:52:35;7.10;72.80
68924;DHT22;55961;52.156;20.942;2022-09-25T01:55:20;7.10;72.60
68924;DHT22;55961;52.156;20.942;2022-09-25T01:57:52;7.10;72.60
68924;DHT22;55961;52.156;20.942;2022-09-25T02:00:21;7.00;72.60
68924;DHT22;55961;52.156;20.942;2022-09-25T02:02:53;7.00;72.70
68924;DHT22;55961;52.156;20.942;2022-09-25T02:05:24;7.00;72.70
68924;DHT22;55961;52.156;20.942;2022-09-25T02:07:57;7.00;72.60
68924;DHT22;55961;52.156;20.942;2022-09-25T02:10:30;7.00;72.60
68924;DHT22;55961;52.156;20.942;2022-09-25T02:13:08;6.90;72.50
68924;DHT22;55961;52.156;20.942;2022-09-25T02:15:56;6.90;72.40
68924;DHT22;55961;52.156;20.942;2022-09-25T02:18:24;6.90;72.50
68924;DHT22;55961;52.156;20.942;2022-09-25T02:24:23;6.80;72.60
68924;DHT22;55961;52.156;20.942;2022-09-25T02:26:51;6.80;72.40
68924;DHT22;55961;52.156;20.942;2022-09-25T02:29:17;6.80;72.50
68924;DHT22;55961;52.156;20.942;2022-09-25T02:31:57;6.80;72.50
68924;DHT22;55961;52.156;20.942;2022-09-25T02:34:24;6.70;72.60
68924;DHT22;55961;52.156;20.942;2022-09-25T02:36:50;6.70;72.50
68924;DHT22;55961;52.156;20.942;2022-09-25T02:39:19;6.70;72.50
68924;DHT22;55961;52.156;20.942;2022-09-25T02:50:22;6.50;72.30
68924;DHT22;55961;52.156;20.942;2022-09-25T02:55:49;6.50;72.50
68924;DHT22;55961;52.156;20.942;2022-09-25T02:58:44;6.50;72.70
68924;DHT22;55961;52.156;20.942;2022-09-25T03:01:13;6.40;72.50
68924;DHT22;55961;52.156;20.942;2022-09-25T03:03:41;6.40;72.60
68924;DHT22;55961;52.156;20.942;2022-09-25T03:06:09;6.40;72.60
68924;DHT22;55961;52.156;20.942;2022-09-25T03:08:38;6.30;72.70
68924;DHT22;55961;52.156;20.942;2022-09-25T03:11:09;6.30;72.70
68924;DHT22;55961;52.156;20.942;2022-09-25T03:13:37;6.30;72.90
68924;DHT22;55961;52.156;20.942;2022-09-25T03:16:11;6.30;72.90
68924;DHT22;55961;52.156;20.942;2022-09-25T03:18:39;6.20;72.70
68924;DHT22;55961;52.156;20.942;2022-09-25T03:21:05;6.20;72.80
68924;DHT22;55961;52.156;20.942;2022-09-25T03:23:31;6.20;72.60
68924;DHT22;55961;52.156;20.942;2022-09-25T03:25:58;6.20;72.80
68924;DHT22;55961;52.156;20.942;2022-09-25T03:28:24;6.20;72.80
68924;DHT22;55961;52.156;20.942;2022-09-25T03:31:07;6.10;72.70
68924;DHT22;55961;52.156;20.942;2022-09-25T03:33:40;6.10;72.70
68924;DHT22;55961;52.156;20.942;2022-09-25T03:36:09;6.10;72.80
68924;DHT22;55961;52.156;20.942;2022-09-25T03:38:36;6.10;72.90
68924;DHT22;55961;52.156;20.942;2022-09-25T03:41:03;6.10;73.10
68924;DHT22;55961;52.156;20.942;2022-09-25T03:43:41;6.00;72.90
68924;DHT22;55961;52.156;20.942;2022-09-25T03:46:12;6.00;73.00
68924;DHT22;55961;52.156;20.942;2022-09-25T03:48:39;6.00;73.10
68924;DHT22;55961;52.156;20.942;2022-09-25T03:51:06;6.00;73.10
68924;DHT22;55961;52.156;20.942;2022-09-25T03:53:32;6.00;73.10
68924;DHT22;55961;52.156;20.942;2022-09-25T03:55:59;5.90;73.10
68924;DHT22;55961;52.156;20.942;2022-09-25T03:58:26;5.90;73.10
68924;DHT22;55961;52.156;20.942;2022-09-25T04:00:52;5.90;73.20
68924;DHT22;55961;52.156;20.942;2022-09-25T04:03:25;5.90;73.30
68924;DHT22;55961;52.156;20.942;2022-09-25T04:05:54;5.90;73.50
68924;DHT22;55961;52.156;20.942;2022-09-25T04:08:21;5.90;73.60
68924;DHT22;55961;52.156;20.942;2022-09-25T04:10:47;5.90;73.60
68924;DHT22;55961;52.156;20.942;2022-09-25T04:13:13;5.90;73.60
68924;DHT22;55961;52.156;20.942;2022-09-25T04:15:41;5.80;73.60
68924;DHT22;55961;52.156;20.942;2022-09-25T04:18:07;5.80;73.70
68924;DHT22;55961;52.156;20.942;2022-09-25T04:20:34;5.80;73.70
68924;DHT22;55961;52.156;20.942;2022-09-25T04:23:00;5.80;73.90
68924;DHT22;55961;52.156;20.942;2022-09-25T04:25:26;5.80;74.00
68924;DHT22;55961;52.156;20.942;2022-09-25T04:27:53;5.80;73.90
68924;DHT22;55961;52.156;20.942;2022-09-25T04:30:24;5.80;73.90
68924;DHT22;55961;52.156;20.942;2022-09-25T04:32:50;5.80;74.00
68924;DHT22;55961;52.156;20.942;2022-09-25T04:35:35;5.80;74.00
68924;DHT22;55961;52.156;20.942;2022-09-25T04:38:01;5.80;74.00
68924;DHT22;55961;52.156;20.942;2022-09-25T04:43:12;5.70;74.30
68924;DHT22;55961;52.156;20.942;2022-09-25T04:45:38;5.80;74.70
68924;DHT22;55961;52.156;20.942;2022-09-25T04:48:04;5.70;74.80
68924;DHT22;55961;52.156;20.942;2022-09-25T04:50:31;5.80;74.80
68924;DHT22;55961;52.156;20.942;2022-09-25T04:52:58;5.80;74.80
68924;DHT22;55961;52.156;20.942;2022-09-25T04:55:25;5.80;74.90
68924;DHT22;55961;52.156;20.942;2022-09-25T04:57:53;5.80;75.20
68924;DHT22;55961;52.156;20.942;2022-09-25T05:00:20;5.80;75.10
68924;DHT22;55961;52.156;20.942;2022-09-25T05:02:46;5.80;75.00
68924;DHT22;55961;52.156;20.942;2022-09-25T05:05:12;5.80;75.20
68924;DHT22;55961;52.156;20.942;2022-09-25T05:07:39;5.80;75.30
68924;DHT22;55961;52.156;20.942;2022-09-25T05:10:05;5.80;75.30
68924;DHT22;55961;52.156;20.942;2022-09-25T05:12:34;5.80;75.30
68924;DHT22;55961;52.156;20.942;2022-09-25T05:15:00;5.90;75.30
68924;DHT22;55961;52.156;20.942;2022-09-25T05:17:27;5.90;75.40
68924;DHT22;55961;52.156;20.942;2022-09-25T05:19:53;5.90;75.50
68924;DHT22;55961;52.156;20.942;2022-09-25T05:22:18;5.90;75.90
68924;DHT22;55961;52.156;20.942;2022-09-25T05:24:44;5.90;76.40
68924;DHT22;55961;52.156;20.942;2022-09-25T05:27:10;5.90;76.20
68924;DHT22;55961;52.156;20.942;2022-09-25T05:29:37;6.00;76.30
68924;DHT22;55961;52.156;20.942;2022-09-25T05:32:03;6.00;76.60
68924;DHT22;55961;52.156;20.942;2022-09-25T05:34:29;6.00;76.60
68924;DHT22;55961;52.156;20.942;2022-09-25T05:36:55;6.00;76.70
68924;DHT22;55961;52.156;20.942;2022-09-25T05:39:20;6.10;77.00
68924;DHT22;55961;52.156;20.942;2022-09-25T05:41:46;6.10;77.20
68924;DHT22;55961;52.156;20.942;2022-09-25T05:44:12;6.20;77.40
68924;DHT22;55961;52.156;20.942;2022-09-25T05:46:39;6.20;77.50
68924;DHT22;55961;52.156;20.942;2022-09-25T05:49:05;6.30;77.70
68924;DHT22;55961;52.156;20.942;2022-09-25T05:51:31;6.40;77.90
68924;DHT22;55961;52.156;20.942;2022-09-25T05:53:58;6.50;77.90
68924;DHT22;55961;52.156;20.942;2022-09-25T05:56:25;6.60;77.90
68924;DHT22;55961;52.156;20.942;2022-09-25T05:58:51;6.60;77.70
68924;DHT22;55961;52.156;20.942;2022-09-25T06:01:17;6.70;77.50
68924;DHT22;55961;52.156;20.942;2022-09-25T06:03:44;6.80;77.30
68924;DHT22;55961;52.156;20.942;2022-09-25T06:06:10;6.90;77.00
68924;DHT22;55961;52.156;20.942;2022-09-25T06:08:36;6.90;76.90
68924;DHT22;55961;52.156;20.942;2022-09-25T06:11:04;7.00;77.00
68924;DHT22;55961;52.156;20.942;2022-09-25T06:13:31;7.10;77.00
68924;DHT22;55961;52.156;20.942;2022-09-25T06:15:59;7.20;77.00
68924;DHT22;55961;52.156;20.942;2022-09-25T06:18:25;7.30;77.00
68924;DHT22;55961;52.156;20.942;2022-09-25T06:20:57;7.40;77.10
68924;DHT22;55961;52.156;20.942;2022-09-25T06:23:23;7.50;77.50
68924;DHT22;55961;52.156;20.942;2022-09-25T06:25:49;7.60;77.10
68924;DHT22;55961;52.156;20.942;2022-09-25T06:28:14;7.80;76.50
68924;DHT22;55961;52.156;20.942;2022-09-25T06:30:40;7.90;76.20
68924;DHT22;55961;52.156;20.942;2022-09-25T06:33:12;8.00;75.70
68924;DHT22;55961;52.156;20.942;2022-09-25T06:35:42;8.20;75.50
68924;DHT22;55961;52.156;20.942;2022-09-25T06:38:09;8.30;75.50
68924;DHT22;55961;52.156;20.942;2022-09-25T06:40:36;8.50;75.50
68924;DHT22;55961;52.156;20.942;2022-09-25T06:43:08;8.70;75.20
68924;DHT22;55961;52.156;20.942;2022-09-25T06:45:35;8.80;74.10
68924;DHT22;55961;52.156;20.942;2022-09-25T06:48:11;9.00;73.20
68924;DHT22;55961;52.156;20.942;2022-09-25T06:50:54;9.20;73.10
68924;DHT22;55961;52.156;20.942;2022-09-25T06:53:22;9.30;72.90
68924;DHT22;55961;52.156;20.942;2022-09-25T06:55:49;9.50;71.50
68924;DHT22;55961;52.156;20.942;2022-09-25T06:58:20;9.70;70.80
68924;DHT22;55961;52.156;20.942;2022-09-25T07:00:48;9.80;70.90
68924;DHT22;55961;52.156;20.942;2022-09-25T07:03:14;10.00;70.30
68924;DHT22;55961;52.156;20.942;2022-09-25T07:05:59;10.10;70.10
68924;DHT22;55961;52.156;20.942;2022-09-25T07:08:25;10.20;70.30
68924;DHT22;55961;52.156;20.942;2022-09-25T07:10:53;10.30;70.10
68924;DHT22;55961;52.156;20.942;2022-09-25T07:13:21;10.50;70.00
68924;DHT22;55961;52.156;20.942;2022-09-25T07:15:56;10.60;68.90
68924;DHT22;55961;52.156;20.942;2022-09-25T07:18:23;10.70;68.30
68924;DHT22;55961;52.156;20.942;2022-09-25T07:20:50;10.80;67.70
68924;DHT22;55961;52.156;20.942;2022-09-25T07:23:18;10.90;67.60
68924;DHT22;55961;52.156;20.942;2022-09-25T07:25:45;11.00;67.20
68924;DHT22;55961;52.156;20.942;2022-09-25T07:28:12;11.10;66.70
68924;DHT22;55961;52.156;20.942;2022-09-25T07:30:39;11.20;66.20
68924;DHT22;55961;52.156;20.942;2022-09-25T07:33:05;11.30;66.00
68924;DHT22;55961;52.156;20.942;2022-09-25T07:35:33;11.30;65.50
68924;DHT22;55961;52.156;20.942;2022-09-25T07:37:59;11.40;66.10
68924;DHT22;55961;52.156;20.942;2022-09-25T07:40:25;11.50;65.70
68924;DHT22;55961;52.156;20.942;2022-09-25T07:43:05;11.60;65.90
68924;DHT22;55961;52.156;20.942;2022-09-25T07:45:31;11.60;66.10
68924;DHT22;55961;52.156;20.942;2022-09-25T07:47:58;11.80;65.40
68924;DHT22;55961;52.156;20.942;2022-09-25T07:50:29;11.90;65.60
68924;DHT22;55961;52.156;20.942;2022-09-25T07:52:55;12.00;65.70
68924;DHT22;55961;52.156;20.942;2022-09-25T07:55:22;12.10;65.40
68924;DHT22;55961;52.156;20.942;2022-09-25T07:57:47;12.20;65.30
68924;DHT22;55961;52.156;20.942;2022-09-25T08:00:16;12.40;64.80
68924;DHT22;55961;52.156;20.942;2022-09-25T08:02:42;12.50;64.20
68924;DHT22;55961;52.156;20.942;2022-09-25T08:05:08;12.60;63.80
68924;DHT22;55961;52.156;20.942;2022-09-25T08:07:35;12.70;63.20
68924;DHT22;55961;52.156;20.942;2022-09-25T08:10:00;12.80;62.80
68924;DHT22;55961;52.156;20.942;2022-09-25T08:12:26;12.80;63.20
68924;DHT22;55961;52.156;20.942;2022-09-25T08:14:53;12.90;63.00
68924;DHT22;55961;52.156;20.942;2022-09-25T08:17:19;13.00;62.90
68924;DHT22;55961;52.156;20.942;2022-09-25T08:19:46;13.10;62.80
68924;DHT22;55961;52.156;20.942;2022-09-25T08:22:13;13.20;62.60
68924;DHT22;55961;52.156;20.942;2022-09-25T08:24:39;13.30;62.60
68924;DHT22;55961;52.156;20.942;2022-09-25T08:27:04;13.50;62.60
68924;DHT22;55961;52.156;20.942;2022-09-25T08:29:32;13.60;62.20
68924;DHT22;55961;52.156;20.942;2022-09-25T08:31:58;13.70;62.60
68924;DHT22;55961;52.156;20.942;2022-09-25T08:34:24;13.80;61.90
68924;DHT22;55961;52.156;20.942;2022-09-25T08:36:50;14.00;61.70
68924;DHT22;55961;52.156;20.942;2022-09-25T08:39:16;14.10;61.00
68924;DHT22;55961;52.156;20.942;2022-09-25T08:44:37;14.20;60.80
68924;DHT22;55961;52.156;20.942;2022-09-25T08:47:22;14.20;60.80
68924;DHT22;55961;52.156;20.942;2022-09-25T08:50:23;14.20;61.10
68924;DHT22;55961;52.156;20.942;2022-09-25T08:53:13;14.30;60.80
68924;DHT22;55961;52.156;20.942;2022-09-25T08:55:39;14.30;61.20
68924;DHT22;55961;52.156;20.942;2022-09-25T08:58:26;14.40;61.20
68924;DHT22;55961;52.156;20.942;2022-09-25T09:00:57;14.50;61.00
68924;DHT22;55961;52.156;20.942;2022-09-25T09:03:25;14.50;61.20
68924;DHT22;55961;52.156;20.942;2022-09-25T09:06:14;14.50;60.80
68924;DHT22;55961;52.156;20.942;2022-09-25T09:08:45;14.60;61.00
68924;DHT22;55961;52.156;20.942;2022-09-25T09:11:40;14.70;61.10
68924;DHT22;55961;52.156;20.942;2022-09-25T09:14:16;14.70;60.60
68924;DHT22;55961;52.156;20.942;2022-09-25T09:16:47;14.80;60.90
68924;DHT22;55961;52.156;20.942;2022-09-25T09:19:14;14.90;61.00
68924;DHT22;55961;52.156;20.942;2022-09-25T09:24:39;15.10;61.00
68924;DHT22;55961;52.156;20.942;2022-09-25T09:32:30;15.50;59.70
68924;DHT22;55961;52.156;20.942;2022-09-25T09:49:19;16.50;57.30
68924;DHT22;55961;52.156;20.942;2022-09-25T09:54:39;17.00;56.30
68924;DHT22;55961;52.156;20.942;2022-09-25T09:57:19;17.20;56.00
68924;DHT22;55961;52.156;20.942;2022-09-25T10:00:05;17.40;55.00
68924;DHT22;55961;52.156;20.942;2022-09-25T10:02:43;17.70;53.80
68924;DHT22;55961;52.156;20.942;2022-09-25T10:05:22;17.90;53.10
68924;DHT22;55961;52.156;20.942;2022-09-25T10:07:49;18.10;52.70
68924;DHT22;55961;52.156;20.942;2022-09-25T10:10:17;18.30;52.30
68924;DHT22;55961;52.156;20.942;2022-09-25T10:12:51;18.50;52.70
68924;DHT22;55961;52.156;20.942;2022-09-25T10:15:31;18.80;52.50
68924;DHT22;55961;52.156;20.942;2022-09-25T10:18:00;18.90;51.60
68924;DHT22;55961;52.156;20.942;2022-09-25T10:20:32;19.00;50.20
68924;DHT22;55961;52.156;20.942;2022-09-25T10:23:02;19.10;50.70
68924;DHT22;55961;52.156;20.942;2022-09-25T10:25:37;19.10;49.80
68924;DHT22;55961;52.156;20.942;2022-09-25T10:30:51;19.20;49.70
68924;DHT22;55961;52.156;20.942;2022-09-25T10:33:23;19.30;50.70
68924;DHT22;55961;52.156;20.942;2022-09-25T10:35:50;19.40;49.70
68924;DHT22;55961;52.156;20.942;2022-09-25T10:38:28;19.50;49.90
68924;DHT22;55961;52.156;20.942;2022-09-25T10:43:24;19.70;46.10
68924;DHT22;55961;52.156;20.942;2022-09-25T10:46:12;19.80;47.00
68924;DHT22;55961;52.156;20.942;2022-09-25T10:48:39;19.80;45.90
68924;DHT22;55961;52.156;20.942;2022-09-25T10:51:24;19.80;46.30
68924;DHT22;55961;52.156;20.942;2022-09-25T10:53:53;19.90;44.70
68924;DHT22;55961;52.156;20.942;2022-09-25T10:56:34;20.00;42.50
68924;DHT22;55961;52.156;20.942;2022-09-25T10:59:13;20.20;42.30
68924;DHT22;55961;52.156;20.942;2022-09-25T11:01:42;20.40;42.00
68924;DHT22;55961;52.156;20.942;2022-09-25T11:04:19;20.50;43.70
68924;DHT22;55961;52.156;20.942;2022-09-25T11:06:49;20.70;43.20
68924;DHT22;55961;52.156;20.942;2022-09-25T11:09:19;20.90;43.50
68924;DHT22;55961;52.156;20.942;2022-09-25T11:11:47;21.10;43.60
68924;DHT22;55961;52.156;20.942;2022-09-25T11:14:22;21.20;42.90
68924;DHT22;55961;52.156;20.942;2022-09-25T11:16:50;21.40;40.80
68924;DHT22;55961;52.156;20.942;2022-09-25T11:22:27;21.70;41.60
68924;DHT22;55961;52.156;20.942;2022-09-25T11:25:11;21.90;40.40
68924;DHT22;55961;52.156;20.942;2022-09-25T11:27:53;22.10;40.50
68924;DHT22;55961;52.156;20.942;2022-09-25T11:30:21;22.30;39.90
68924;DHT22;55961;52.156;20.942;2022-09-25T11:33:14;22.20;39.50
68924;DHT22;55961;52.156;20.942;2022-09-25T11:36:01;22.10;40.30
68924;DHT22;55961;52.156;20.942;2022-09-25T11:38:53;22.10;41.10
68924;DHT22;55961;52.156;20.942;2022-09-25T11:42:04;22.10;40.70
68924;DHT22;55961;52.156;20.942;2022-09-25T11:45:06;22.10;41.10
68924;DHT22;55961;52.156;20.942;2022-09-25T11:47:59;22.00;40.30
68924;DHT22;55961;52.156;20.942;2022-09-25T11:50:39;22.00;41.00
68924;DHT22;55961;52.156;20.942;2022-09-25T11:53:47;22.10;40.60
68924;DHT22;55961;52.156;20.942;2022-09-25T11:56:45;22.20;39.90
68924;DHT22;55961;52.156;20.942;2022-09-25T12:02:18;22.30;39.60
68924;DHT22;55961;52.156;20.942;2022-09-25T12:07:43;22.60;38.70
68924;DHT22;55961;52.156;20.942;2022-09-25T12:16:30;22.80;38.30
68924;DHT22;55961;52.156;20.942;2022-09-25T12:19:01;22.70;38.10
68924;DHT22;55961;52.156;20.942;2022-09-25T12:35:38;21.80;40.80
68924;DHT22;55961;52.156;20.942;2022-09-25T12:41:23;21.70;41.10
68924;DHT22;55961;52.156;20.942;2022-09-25T12:44:10;21.70;40.50
68924;DHT22;55961;52.156;20.942;2022-09-25T12:46:52;21.60;40.80
68924;DHT22;55961;52.156;20.942;2022-09-25T12:49:26;21.60;40.70
68924;DHT22;55961;52.156;20.942;2022-09-25T12:51:59;21.60;42.30
68924;DHT22;55961;52.156;20.942;2022-09-25T12:54:33;21.50;42.50
68924;DHT22;55961;52.156;20.942;2022-09-25T12:57:11;21.50;42.50
68924;DHT22;55961;52.156;20.942;2022-09-25T13:02:27;21.50;42.40
68924;DHT22;55961;52.156;20.942;2022-09-25T13:07:56;21.70;42.10
68924;DHT22;55961;52.156;20.942;2022-09-25T13:10:44;21.70;42.00
68924;DHT22;55961;52.156;20.942;2022-09-25T13:13:15;21.70;41.90
68924;DHT22;55961;52.156;20.942;2022-09-25T13:15:48;21.70;42.00
68924;DHT22;55961;52.156;20.942;2022-09-25T13:18:21;21.70;42.40
68924;DHT22;55961;52.156;20.942;2022-09-25T13:20:57;21.70;42.30
68924;DHT22;55961;52.156;20.942;2022-09-25T13:25:59;21.60;41.50
68924;DHT22;55961;52.156;20.942;2022-09-25T13:28:32;21.50;42.00
68924;DHT22;55961;52.156;20.942;2022-09-25T13:31:10;21.30;41.60
68924;DHT22;55961;52.156;20.942;2022-09-25T13:36:33;21.00;43.30
68924;DHT22;55961;52.156;20.942;2022-09-25T13:39:03;20.90;43.60
68924;DHT22;55961;52.156;20.942;2022-09-25T13:45:32;20.70;43.90
68924;DHT22;55961;52.156;20.942;2022-09-25T13:53:55;20.50;45.30
68924;DHT22;55961;52.156;20.942;2022-09-25T13:59:19;20.40;45.10
68924;DHT22;55961;52.156;20.942;2022-09-25T14:01:57;20.30;45.10
68924;DHT22;55961;52.156;20.942;2022-09-25T14:04:28;20.30;45.00
68924;DHT22;55961;52.156;20.942;2022-09-25T14:07:19;20.20;44.30
68924;DHT22;55961;52.156;20.942;2022-09-25T14:09:50;20.10;44.70
68924;DHT22;55961;52.156;20.942;2022-09-25T14:12:32;20.00;45.40
68924;DHT22;55961;52.156;20.942;2022-09-25T14:17:52;20.00;45.40
68924;DHT22;55961;52.156;20.942;2022-09-25T14:20:32;19.90;45.40
68924;DHT22;55961;52.156;20.942;2022-09-25T14:23:05;19.90;45.10
68924;DHT22;55961;52.156;20.942;2022-09-25T14:25:36;19.90;45.40
68924;DHT22;55961;52.156;20.942;2022-09-25T14:28:45;19.90;45.30
68924;DHT22;55961;52.156;20.942;2022-09-25T14:37:20;19.90;45.60
68924;DHT22;55961;52.156;20.942;2022-09-25T14:42:35;19.80;45.90
68924;DHT22;55961;52.156;20.942;2022-09-25T14:47:47;19.70;46.10
68924;DHT22;55961;52.156;20.942;2022-09-25T14:50:26;19.60;46.60
68924;DHT22;55961;52.156;20.942;2022-09-25T14:52:59;19.60;47.10
68924;DHT22;55961;52.156;20.942;2022-09-25T14:55:32;19.60;47.40
68924;DHT22;55961;52.156;20.942;2022-09-25T14:58:00;19.50;47.00
68924;DHT22;55961;52.156;20.942;2022-09-25T15:00:26;19.50;47.10
68924;DHT22;55961;52.156;20.942;2022-09-25T15:02:54;19.40;47.40
68924;DHT22;55961;52.156;20.942;2022-09-25T15:07:50;19.30;48.10
68924;DHT22;55961;52.156;20.942;2022-09-25T15:10:32;19.20;48.40
68924;DHT22;55961;52.156;20.942;2022-09-25T15:13:17;19.20;48.80
68924;DHT22;55961;52.156;20.942;2022-09-25T15:15:53;19.10;49.10
68924;DHT22;55961;52.156;20.942;2022-09-25T15:18:48;19.10;49.30
68924;DHT22;55961;52.156;20.942;2022-09-25T15:21:27;19.00;49.40
68924;DHT22;55961;52.156;20.942;2022-09-25T15:23:57;19.00;49.50
68924;DHT22;55961;52.156;20.942;2022-09-25T15:26:23;19.00;49.60
68924;DHT22;55961;52.156;20.942;2022-09-25T15:28:52;18.90;50.00
68924;DHT22;55961;52.156;20.942;2022-09-25T15:31:18;18.90;51.00
68924;DHT22;55961;52.156;20.942;2022-09-25T15:34:00;18.90;50.80
68924;DHT22;55961;52.156;20.942;2022-09-25T15:36:27;18.90;50.60
68924;DHT22;55961;52.156;20.942;2022-09-25T15:38:55;18.80;50.90
68924;DHT22;55961;52.156;20.942;2022-09-25T15:41:22;18.80;51.00
68924;DHT22;55961;52.156;20.942;2022-09-25T15:43:51;18.80;51.40
68924;DHT22;55961;52.156;20.942;2022-09-25T15:46:38;18.70;51.50
68924;DHT22;55961;52.156;20.942;2022-09-25T15:49:07;18.70;52.20
68924;DHT22;55961;52.156;20.942;2022-09-25T15:51:35;18.60;52.70
68924;DHT22;55961;52.156;20.942;2022-09-25T15:54:36;18.60;52.40
68924;DHT22;55961;52.156;20.942;2022-09-25T15:57:07;18.50;52.30
68924;DHT22;55961;52.156;20.942;2022-09-25T15:59:45;18.50;52.60
68924;DHT22;55961;52.156;20.942;2022-09-25T16:02:34;18.50;52.90
68924;DHT22;55961;52.156;20.942;2022-09-25T16:05:27;18.40;53.10
68924;DHT22;55961;52.156;20.942;2022-09-25T16:10:49;18.30;53.00
68924;DHT22;55961;52.156;20.942;2022-09-25T16:13:24;18.20;52.90
68924;DHT22;55961;52.156;20.942;2022-09-25T16:15:51;18.20;53.20
68924;DHT22;55961;52.156;20.942;2022-09-25T16:18:26;18.10;53.20
68924;DHT22;55961;52.156;20.942;2022-09-25T16:21:16;18.10;53.30
68924;DHT22;55961;52.156;20.942;2022-09-25T16:23:50;18.00;53.50
68924;DHT22;55961;52.156;20.942;2022-09-25T16:26:18;18.00;53.50
68924;DHT22;55961;52.156;20.942;2022-09-25T16:29:00;17.90;53.70
68924;DHT22;55961;52.156;20.942;2022-09-25T16:31:27;17.80;53.60
68924;DHT22;55961;52.156;20.942;2022-09-25T16:33:55;17.80;53.60
68924;DHT22;55961;52.156;20.942;2022-09-25T16:36:24;17.70;54.10
68924;DHT22;55961;52.156;20.942;2022-09-25T16:41:37;17.60;55.10
68924;DHT22;55961;52.156;20.942;2022-09-25T16:49:18;17.40;55.60
68924;DHT22;55961;52.156;20.942;2022-09-25T16:51:48;17.30;56.00
68924;DHT22;55961;52.156;20.942;2022-09-25T16:54:16;17.30;56.30
68924;DHT22;55961;52.156;20.942;2022-09-25T16:56:44;17.20;56.50
68924;DHT22;55961;52.156;20.942;2022-09-25T16:59:22;17.10;56.60
68924;DHT22;55961;52.156;20.942;2022-09-25T17:01:49;17.00;56.80
68924;DHT22;55961;52.156;20.942;2022-09-25T17:04:22;17.00;57.10
68924;DHT22;55961;52.156;20.942;2022-09-25T17:06:48;16.90;57.30
68924;DHT22;55961;52.156;20.942;2022-09-25T17:09:16;16.80;57.70
68924;DHT22;55961;52.156;20.942;2022-09-25T17:11:44;16.70;58.10
68924;DHT22;55961;52.156;20.942;2022-09-25T17:14:22;16.70;58.30
68924;DHT22;55961;52.156;20.942;2022-09-25T17:16:53;16.60;58.70
68924;DHT22;55961;52.156;20.942;2022-09-25T17:19:20;16.50;59.00
68924;DHT22;55961;52.156;20.942;2022-09-25T17:21:50;16.50;59.00
68924;DHT22;55961;52.156;20.942;2022-09-25T17:24:22;16.40;59.10
68924;DHT22;55961;52.156;20.942;2022-09-25T17:26:48;16.30;59.50
68924;DHT22;55961;52.156;20.942;2022-09-25T17:29:16;16.30;59.50
68924;DHT22;55961;52.156;20.942;2022-09-25T17:31:42;16.20;59.70
68924;DHT22;55961;52.156;20.942;2022-09-25T17:34:21;16.10;59.80
68924;DHT22;55961;52.156;20.942;2022-09-25T17:36:53;16.10;59.80
68924;DHT22;55961;52.156;20.942;2022-09-25T17:39:24;16.00;60.10
68924;DHT22;55961;52.156;20.942;2022-09-25T17:41:49;16.00;60.10
68924;DHT22;55961;52.156;20.942;2022-09-25T17:44:18;15.90;60.10
68924;DHT22;55961;52.156;20.942;2022-09-25T17:46:45;15.90;60.00
68924;DHT22;55961;52.156;20.942;2022-09-25T17:49:10;15.80;60.30
68924;DHT22;55961;52.156;20.942;2022-09-25T17:51:37;15.80;60.70
68924;DHT22;55961;52.156;20.942;2022-09-25T17:54:03;15.70;60.80
68924;DHT22;55961;52.156;20.942;2022-09-25T17:56:31;15.60;60.90
68924;DHT22;55961;52.156;20.942;2022-09-25T17:59:00;15.60;61.10
68924;DHT22;55961;52.156;20.942;2022-09-25T18:01:29;15.60;61.00
68924;DHT22;55961;52.156;20.942;2022-09-25T18:03:57;15.50;61.10
68924;DHT22;55961;52.156;20.942;2022-09-25T18:06:25;15.50;61.30
68924;DHT22;55961;52.156;20.942;2022-09-25T18:08:52;15.40;61.50
68924;DHT22;55961;52.156;20.942;2022-09-25T18:11:19;15.40;61.90
68924;DHT22;55961;52.156;20.942;2022-09-25T18:13:46;15.30;61.90
68924;DHT22;55961;52.156;20.942;2022-09-25T18:16:17;15.30;62.00